Latest Weather Observations for Hogan Island

IDV60801

Issued at 8:32 pm EDT Tuesday 28 February 2017 (issued every 30 minutes, with the page automatically refreshed every 10 minutes)

About weather observations | Map of weather stations | Latest weather observations for VIC | Other Formats
Station Details ID: 200838 Name: HOGAN ISLAND Lat: -39.22 Lon: 146.98 Height: 116.0 m
Data from the previous 72 hours. | See also: Recent months at Hogan Island
Date/Time
EDT
Temp
°C
App
Temp
°C
Dew
Point
°C
Rel
Hum
%
Delta-T
°C
Wind Press
QNH
hPa
Press
MSL
hPa
Rain since
9am
mm
Dir  Spd
km/h
Gust
km/h
Spd
kts
Gust
kts
28/08:30pm 17.6 - - - - E 13 17 7 9 1021.7 - 0.2
28/08:00pm 17.8 - - - - E 11 13 6 7 1021.6 - 0.2
28/07:30pm 18.2 - - - - E 13 15 7 8 1021.3 - 0.2
28/07:00pm 18.8 - - - - E 15 17 8 9 1021.3 - 0.2
28/06:30pm 19.2 - - - - E 19 20 10 11 1021.2 - 0.2
28/06:00pm 19.5 - - - - E 17 20 9 11 1021.2 1020.9 0.2
28/05:30pm 19.8 - - - - E 15 17 8 9 1021.2 - 0.2
28/05:00pm 19.4 - - - - E 15 19 8 10 1021.4 - 0.2
28/04:30pm 20.3 - - - - E 17 20 9 11 1021.4 - 0.2
28/04:00pm 20.6 - 21.5 - - E 17 20 9 11 1021.6 - 0.2
28/03:30pm 21.0 - 21.6 - - E 15 19 8 10 1021.7 - 0.2
28/03:00pm 21.5 - 22.3 - - E 11 15 6 8 1021.9 1021.6 0.2
28/02:30pm 21.6 - 22.4 - - ENE 9 13 5 7 1022.1 - 0.2
28/02:00pm 20.8 - - - - NE 11 15 6 8 1022.1 - 0.2
28/01:30pm 19.3 - - - - ENE 13 17 7 9 1022.3 - 0.2
28/01:00pm 20.1 - - - - NE 13 17 7 9 1022.3 - 0.2
28/12:30pm 19.4 - - - - NE 15 17 8 9 1022.4 - 0.2
28/12:00pm 19.2 - - - - NNE 15 17 8 9 1022.5 1022.2 0.2
28/11:30am 18.8 - - - - NE 15 17 8 9 1022.6 - 0.2
28/11:00am 17.4 - - - - NNE 13 17 7 9 1022.7 - 0.2
28/10:30am 17.4 - - - - NE 17 20 9 11 1022.5 - 0.2
28/10:00am 17.0 - - - - NE 20 24 11 13 1022.4 - 0.2
28/09:30am 17.0 - - - - ENE 20 24 11 13 1022.3 - 0.2
28/09:00am 18.5 - - - - ENE 22 24 12 13 1022.2 1021.9 0.0
28/08:30am 18.1 - - - - E 20 24 11 13 1022.1 - 0.0
28/08:00am 17.8 - - - - E 20 24 11 13 1022.0 - 0.0
28/07:30am 17.2 - - - - ENE 22 28 12 15 1021.9 - 0.0
28/07:00am 16.8 - - - - ENE 26 30 14 16 1021.7 - 0.0
28/06:30am 16.9 - - - - E 28 33 15 18 1021.5 - 0.0
28/06:00am 17.0 - - - - E 28 33 15 18 1021.4 1021.1 0.0
28/05:30am 17.1 - - - - E 28 33 15 18 1021.3 - 0.0
28/05:00am 17.3 - - - - E 30 35 16 19 1021.3 - 0.0
28/04:30am 17.3 - - - - E 30 37 16 20 1021.4 - 0.0
28/04:00am 17.4 - - - - E 30 39 16 21 1021.7 - 0.0
28/03:30am 17.4 - - - - E 33 41 18 22 1021.9 - 0.0
28/03:00am 17.5 - - - - E 35 43 19 23 1022.2 1021.9 0.0
28/02:30am 17.6 - - - - E 37 44 20 24 1022.4 - 0.0
28/02:00am 17.6 - - - - E 37 44 20 24 1022.6 - 0.0
28/01:30am 17.7 - - - - E 37 44 20 24 1022.9 - 0.0
28/01:00am 17.5 - - - - ENE 37 44 20 24 1023.1 - 0.0
28/12:30am 17.5 - - - - ENE 41 50 22 27 1023.1 - 0.0
28/12:00am 17.5 - - - - E 41 50 22 27 1023.3 1023.0 0.0
 
Date/Time
EDT
Temp
°C
App
Temp
°C
Dew
Point
°C
Rel
Hum
%
Delta-T
°C
Wind Press
QNH
hPa
Press
MSL
hPa
Rain since
9am
mm
Dir  Spd
km/h
Gust
km/h
Spd
kts
Gust
kts
27/11:30pm 17.2 - - - - E 37 46 20 25 1023.6 - 0.0
27/11:00pm 17.2 - - - - E 39 46 21 25 1023.8 - 0.0
27/10:30pm 17.3 - - - - E 37 44 20 24 1024.1 - 0.0
27/10:00pm 17.1 - - - - E 39 50 21 27 1024.0 - 0.0
27/09:30pm 17.3 - - - - E 41 52 22 28 1024.0 - 0.0
27/09:00pm 17.3 - - - - E 43 50 23 27 1023.8 1023.5 0.0
27/08:30pm 17.4 - - - - E 43 50 23 27 1023.6 - 0.0
27/08:00pm 17.5 11.7 17.5 100 0.0 E 44 52 24 28 1023.4 - 0.0
27/07:30pm 17.7 - 18.6 - - E 43 50 23 27 1023.2 - 0.0
27/07:00pm 17.9 - 18.8 - - E 43 50 23 27 1023.1 - 0.0
27/06:30pm 18.3 - 19.1 - - E 41 50 22 27 1023.1 - 0.0
27/06:00pm 18.7 - 19.5 - - E 41 46 22 25 1023.2 1022.9 0.0
27/05:30pm 19.2 - 19.8 - - E 39 46 21 25 1023.2 - 0.0
27/05:00pm 19.5 - 20.0 - - E 39 46 21 25 1023.2 - 0.0
27/04:30pm 20.0 - 20.3 - - E 39 46 21 25 1023.4 - 0.0
27/04:00pm 20.2 - 20.4 - - E 41 50 22 27 1023.6 - 0.0
27/03:30pm 20.8 - 21.0 - - ENE 43 48 23 26 1023.8 - 0.0
27/03:00pm 21.5 - 21.8 - - ENE 39 43 21 23 1024.0 1023.7 0.0
27/02:30pm 21.2 - 21.5 - - ENE 37 43 20 23 1024.4 - 0.0
27/02:00pm 21.2 - 21.5 - - ENE 39 44 21 24 1024.5 - 0.0
27/01:30pm 21.5 - 21.8 - - ENE 33 41 18 22 1024.6 - 0.0
27/01:00pm 21.4 - 21.7 - - ENE 35 39 19 21 1024.6 - 0.0
27/12:30pm 21.2 - 21.5 - - ENE 39 44 21 24 1024.6 - 0.0
27/12:00pm 21.5 - 21.8 - - ENE 43 46 23 25 1024.5 1024.2 0.0
27/11:30am 20.8 - 21.1 - - ENE 44 50 24 27 1024.5 - 0.0
27/11:00am 20.9 - 21.4 - - ENE 43 50 23 27 1024.6 - 0.0
27/10:30am 20.5 - 21.0 - - ENE 41 46 22 25 1024.8 - 0.0
27/10:00am 19.8 - 20.4 - - ENE 41 46 22 25 1024.7 - 0.0
27/09:30am 19.3 - 20.1 - - ENE 43 48 23 26 1024.6 - 0.0
27/09:00am 18.9 - 19.8 - - ENE 43 48 23 26 1024.4 1024.1 0.0
27/08:30am 18.5 - 19.6 - - ENE 43 46 23 25 1024.4 - 0.0
27/08:00am 17.8 - - - - ENE 44 52 24 28 1023.9 - 0.0
27/07:30am 17.4 - - - - ENE 46 52 25 28 1023.8 - 0.0
27/07:00am 17.1 - - - - ENE 48 57 26 31 1023.3 - 0.0
27/06:30am 16.9 - - - - ENE 46 57 25 31 1023.0 - 0.0
27/06:00am 16.9 - 18.0 - - E 43 50 23 27 1022.9 1022.6 0.0
27/05:30am 16.8 - 17.9 - - E 43 52 23 28 1022.9 - 0.0
27/05:00am 16.7 - 17.6 - - E 43 50 23 27 1022.9 - 0.0
27/04:30am 16.6 - 17.5 - - ENE 46 56 25 30 1022.9 - 0.0
27/04:00am 16.5 - 17.4 - - ENE 44 52 24 28 1023.1 - 0.0
27/03:30am 16.5 - 17.4 - - ENE 43 52 23 28 1023.2 - 0.0
27/03:00am 16.2 - 17.1 - - ENE 41 46 22 25 1023.7 1023.4 0.0
27/02:30am 16.2 - 17.0 - - ENE 41 46 22 25 1023.7 - 0.0
27/02:00am 16.3 - 17.1 - - ENE 41 48 22 26 1023.8 - 0.0
27/01:30am 16.2 - 16.8 - - ENE 39 44 21 24 1024.0 - 0.0
27/01:00am 16.2 - 16.7 - - ENE 39 46 21 25 1024.3 - 0.0
27/12:30am 16.1 - 16.6 - - ENE 41 48 22 26 1024.4 - 0.0
27/12:00am 16.2 - 16.5 - - ENE 43 48 23 26 1024.6 1024.3 0.0
 
Date/Time
EDT
Temp
°C
App
Temp
°C
Dew
Point
°C
Rel
Hum
%
Delta-T
°C
Wind Press
QNH
hPa
Press
MSL
hPa
Rain since
9am
mm
Dir  Spd
km/h
Gust
km/h
Spd
kts
Gust
kts
26/11:30pm 16.3 - 16.6 - - ENE 46 54 25 29 1024.6 - 0.0
26/11:00pm 16.3 - 16.6 - - ENE 46 50 25 27 1024.8 - 0.0
26/10:30pm 16.2 10.1 16.2 100 0.0 ENE 43 48 23 26 1025.0 - 0.0
26/10:00pm 16.2 - 16.5 - - ENE 44 52 24 28 1024.9 - 0.0
26/09:30pm 16.6 9.7 16.6 100 0.0 ENE 48 59 26 32 1024.7 - 0.0
26/09:00pm 16.5 - 16.7 - - E 44 54 24 29 1024.4 1024.1 0.0
26/08:30pm 16.5 10.3 16.5 100 0.0 E 44 56 24 30 1024.3 - 0.0
26/08:00pm 16.6 10.5 16.6 100 0.0 E 44 54 24 29 1024.1 - 0.0
26/07:30pm 16.8 9.9 16.6 99 0.1 E 48 57 26 31 1023.8 - 0.0
26/07:00pm 17.2 11.2 17.0 99 0.1 E 44 56 24 30 1023.7 - 0.0
26/06:30pm 17.6 11.2 16.8 95 0.5 E 46 57 25 31 1023.8 - 0.0
26/06:00pm 18.0 12.2 17.4 96 0.4 E 44 52 24 28 1023.7 1023.4 0.0
26/05:30pm 18.8 14.9 18.8 100 0.0 ENE 37 43 20 23 1023.7 - 0.0
26/05:00pm 19.5 16.6 19.3 99 0.1 E 33 39 18 21 1023.7 - 0.0
26/04:30pm 20.1 16.5 19.4 96 0.4 ENE 37 44 20 24 1023.7 - 0.0
26/04:00pm 19.9 15.4 18.2 90 1.1 ENE 39 46 21 25 1023.8 - 0.0
26/03:30pm 19.9 14.6 17.3 85 1.6 ENE 41 46 22 25 1024.1 - 0.0
26/03:00pm 20.4 15.3 18.5 89 1.2 ENE 43 50 23 27 1024.4 1024.1 0.0
26/02:30pm 20.3 14.5 18.4 89 1.2 ENE 46 52 25 28 1024.5 - 0.0
26/02:00pm 20.6 15.9 19.4 93 0.8 ENE 43 48 23 26 1024.7 - 0.0
26/01:30pm 20.7 16.0 19.4 92 0.8 ENE 43 50 23 27 1024.7 - 0.0
26/01:00pm 21.0 17.1 20.3 96 0.5 ENE 41 46 22 25 1024.9 - 0.0
26/12:30pm 20.3 16.3 20.1 99 0.1 ENE 41 46 22 25 1025.1 - 0.0
26/12:00pm 20.2 16.2 20.2 100 0.0 ENE 41 46 22 25 1025.1 1024.9 0.0
26/11:30am 20.0 15.5 19.8 99 0.1 ENE 43 50 23 27 1025.1 - 0.0
26/11:00am 19.6 14.9 19.4 99 0.1 ENE 43 52 23 28 1025.3 - 0.0
26/10:30am 19.2 14.4 19.2 100 0.0 E 43 50 23 27 1025.5 - 0.0
26/10:00am 19.0 14.1 19.0 100 0.0 E 43 50 23 27 1025.5 - 0.0
26/09:30am 18.6 13.5 18.6 100 0.0 E 43 50 23 27 1025.4 - 0.0
26/09:00am 18.5 14.1 18.5 100 0.0 E 39 48 21 26 1024.9 1024.6 1.6
26/08:30am 17.4 11.8 17.4 100 0.0 E 43 56 23 30 1024.5 - 1.6
26/08:00am 17.0 11.2 17.0 100 0.0 E 43 48 23 26 1024.5 - 1.6
26/07:30am 16.4 - 16.6 - - E 43 50 23 27 1024.4 - 1.6
26/07:00am 15.9 - 16.1 - - E 43 50 23 27 1024.2 - 1.6
26/06:30am 15.7 - 15.9 - - E 43 52 23 28 1023.7 - 1.6
26/06:00am 15.7 - 15.9 - - E 44 56 24 30 1023.4 1023.1 1.6
26/05:30am 15.8 - 16.0 - - E 46 54 25 29 1023.6 - 1.6
26/05:00am 15.9 - 16.1 - - E 44 54 24 29 1023.5 - 1.6
26/04:30am 15.8 - 16.0 - - E 43 50 23 27 1023.1 - 1.6
26/04:00am 15.7 - 15.9 - - E 44 54 24 29 1023.1 - 1.6
26/03:30am 15.9 - 16.1 - - E 43 56 23 30 1023.4 - 1.6
26/03:00am 15.9 - 16.1 - - E 43 50 23 27 1023.8 1023.5 1.6
26/02:30am 15.9 - 16.1 - - E 44 54 24 29 1024.1 - 1.6
26/02:00am 16.0 - 16.2 - - E 44 52 24 28 1024.5 - 1.6
26/01:30am 16.0 - 16.2 - - E 44 52 24 28 1024.7 - 1.6
26/01:00am 15.9 - 16.1 - - E 44 52 24 28 1025.0 - 1.6
26/12:30am 15.9 - 16.1 - - E 46 54 25 29 1024.9 - 1.6
26/12:00am 15.9 - 16.1 - - E 46 54 25 29 1025.0 1024.7 1.6
 
Date/Time
EDT
Temp
°C
App
Temp
°C
Dew
Point
°C
Rel
Hum
%
Delta-T
°C
Wind Press
QNH
hPa
Press
MSL
hPa
Rain since
9am
mm
Dir  Spd
km/h
Gust
km/h
Spd
kts
Gust
kts
25/11:30pm 16.0 - 16.2 - - E 48 56 26 30 1024.8 - 1.6
25/11:00pm 16.0 - 16.2 - - E 48 56 26 30 1024.8 - 1.6
25/10:30pm 16.2 - 16.4 - - E 48 57 26 31 1024.9 - 1.6
25/10:00pm 16.1 - 16.3 - - E 46 56 25 30 1025.0 - 1.6
25/09:30pm 16.2 - 16.4 - - E 50 56 27 30 1024.7 - 1.6
25/09:00pm 15.9 - 16.1 - - E 50 57 27 31 1024.4 1024.1 1.6

Other Formats:

Comma delimited format used in spreadsheet applications
http://www.bom.gov.au/fwo/IDV60801/IDV60801.94949.axf

JavaScript Object Notation format (JSON) in row-major order
http://www.bom.gov.au/fwo/IDV60801/IDV60801.94949.json